Aérodrome :
LOGIN :

S'inscrire | Disclaimer

   EN    FR    IT 

 










Légende :    VFR   VFR Marginal   IFR   IFR Intensif   IFR Très Intensif
Visi : 
Plafond : 
>= 8 km
>= 3000ft
5 à 8 km
1000 à 3000 ft
1500m à 5 km
500 à 1000 ft
800 à 1500m
200 à 500 ft
< 800m
< 200 ft
Symboles :   Orages  Brouillard  Fortes neiges  Fortes précipitations  Vent > 20 kt
SIGMETs :   Divers  Orages  Givrage  Turbulence  Onde Orograph.  Cendres Volcan.







- Altitude de l'aérodrome : 14 ft
- Code IATA : BRE


EDDW - Bremen Neuenland

DERNIER METAR :
  • 240430Z 16003KT 110V200 9999 FEW035CB BKN070 13/13 Q1012 RETSRA TEMPO BKN010

METARs EXPIRÉS :
  • 240420Z 13003KT 080V170 9999 -TSRA SCT035CB BKN070 13/12 Q1011 BECMG NSW
  • 240350Z 21003KT 170V230 9999 -TSRA FEW030CB SCT060 BKN110 14/11 Q1012 TEMPO TSRA
  • 240342Z 16003KT 110V210 9999 VCTS FEW030CB SCT060 BKN110 14/11 Q1012 TEMPO TSRA
  • 240320Z 14004KT 100V180 9999 VCSH SCT045 BKN110 14/11 Q1011
  • 240250Z 13004KT 9999 VCSH SCT045 BKN110 15/10 Q1012
  • 240220Z 14005KT CAVOK 15/10 Q1012
  • 240150Z 13006KT 090V170 CAVOK 15/10 Q1012

TAF TAF EDDW
Valide du 24 à 00h jusqu'au 25 à 00h UTC


232300Z 2400/2424 15006KT CAVOK
TEMPO 2403/2407 4500 -SHRA
PROB30
TEMPO 2403/2407 25015G25KT 2500 TSRA SCT013 BKN020CB
BECMG 2404/2407 25010KT
TEMPO 2407/2410 BKN013
BECMG 2418/2421 27005KT
Pas de NOTAMs connus pour ce terrain.
4 SIGMETs publiés pour la FIR Bremen (EDWW) :
 
Orages noyés dans la masse
EDWW SIGMET 6 VALID 240430/240730 EDZH
EDWW BREMEN FIR EMBD TS OBS WI N5400 E00814 - N5219 E01032 - N5210 E00922 - N5356 E00731 - N5400 E00814 TOP FL320 MOV E NC=
Orages noyés dans la masse
EDWW SIGMET 5 VALID 240312/240430 EDZH
EDWW BREMEN FIR EMBD TS FCST W OF LINE N5120 E01010 - N5505 E01010 TOP FL320 MOV E NC=
Annulation du SIGMET 3 
EDWW SIGMET 4 VALID 240310/240430 EDZH
EDWW BREMEN FIR CNL SIGMET 3 240300/240430=
SIGMET 3  ANNULÉ :
Orages noyés dans la masse
EDWW SIGMET 3 VALID 240300/240430 EDZH
EDWW BREMEN FIR EMBD TS FCST W OF LINE N5120 E01010 - N5505 E01010 ABV FL320 MOV E NC=



MET'MAP, la Météo Aéronautique d'un coup d'oeil ! - Copyright ORBIFLY Décembre 2007 - Disclaimer

ORBIFLY MET'MAP TEAM :

Programmation & Développement : Alexandra Zaïnal
Conception & Développement : Baudouin d'Aumeries
Co-Programmation & Développement : Marc-Olivier Méhu
Soutien technique & logistique : Manuel Goepfert

Contact : metmap@orbifly.com




SOURCES & CREDITS :

   NOAA